Matsu Arrow — 3FQB8 — position and weather

sailwx.info

Track history (hours):
 
Tides and Currents Weather Stations Pressure Air Temp Water Temp Dewpoint Dewpoint Depression Visibility Wind Speed Wind Dir Waves Ship Positions

Matsu Arrow

Last reported at 2018-Jul-18 04:57 UTC. Time now 2018-Jul-18 04:58 UTC.
Position N 28°39' W 093°16'.

Length 190 m; draft 10 m.

Type: Cargo ship. MMSI: 351805000.

Date/timePositionNaut miles runAvg speedWind from/ knotsBaromVisibWave heightAir tempDewpointWater temp
2018-Jul-18 04:57N 28°39' W 093°16'611.6
2018-Jul-18 04:28N 28°43' W 093°19'611.7
2018-Jul-18 03:59N 28°48' W 093°23'611.8
2018-Jul-18 03:28N 28°53' W 093°27'711.3
2018-Jul-18 02:53N 28°59' W 093°31'411.3
2018-Jul-18 02:30N 29°02' W 093°34'611.6
2018-Jul-18 02:00N 29°07' W 093°38'1510.4
2018-Jul-18 00:31N 29°22' W 093°40'1 9.9
2018-Jul-18 00:25N 29°23' W 093°40'5 8.5
2018-Jul-17 23:52N 29°28' W 093°40'3 9.5
2018-Jul-17 23:30N 29°31' W 093°42'510.4
2018-Jul-17 23:00N 29°34' W 093°46'510.0
2018-Jul-17 22:30N 29°38' W 093°49'5 9.9
2018-Jul-17 22:00N 29°43' W 093°51'4 7.6
2018-Jul-17 21:31N 29°46' W 093°55'4 7.9
2018-Jul-17 21:01N 29°49' W 093°57'1 2.9
2018-Jul-17 20:30N 29°50' W 093°57'0 0.0
2018-Jul-17 20:00N 29°50' W 093°57'0 0.0
2018-Jul-17 19:30N 29°50' W 093°57'0 0.0
2018-Jul-17 19:00N 29°50' W 093°57'0 0.0
2018-Jul-17 18:30N 29°50' W 093°57'0 0.0
2018-Jul-17 17:57N 29°50' W 093°57'0 0.0
2018-Jul-17 17:30N 29°50' W 093°57'0 0.0
2018-Jul-17 17:00N 29°50' W 093°57'0 0.0
2018-Jul-17 16:30N 29°50' W 093°57'0 0.0
2018-Jul-17 16:00N 29°50' W 093°57'0 0.0
2018-Jul-17 15:30N 29°50' W 093°57'0 0.0
2018-Jul-17 15:00N 29°50' W 093°57'0 0.0
2018-Jul-17 14:30N 29°50' W 093°57'0 0.0
2018-Jul-17 14:00N 29°50' W 093°57'0 0.1
2018-Jul-17 13:30N 29°50' W 093°57'0 0.0
2018-Jul-17 13:00N 29°50' W 093°57'0 0.0
2018-Jul-17 12:30N 29°50' W 093°57'0 0.0
2018-Jul-17 12:00N 29°50' W 093°57'0 0.0
2018-Jul-17 11:30N 29°50' W 093°57'0 0.0
2018-Jul-17 11:00N 29°50' W 093°57'0 0.0
2018-Jul-17 10:30N 29°50' W 093°57'0 0.0
2018-Jul-17 10:00N 29°50' W 093°57'0 0.0
2018-Jul-17 09:30N 29°50' W 093°57'0 0.0
2018-Jul-17 09:00N 29°50' W 093°57'0 0.0
2018-Jul-17 08:30N 29°50' W 093°57'0 0.0
2018-Jul-17 08:00N 29°50' W 093°57'0 0.0
2018-Jul-17 07:30N 29°50' W 093°57'0 0.0
2018-Jul-17 07:00N 29°50' W 093°57'0 0.0
2018-Jul-17 06:30N 29°50' W 093°57'0 0.0
2018-Jul-17 06:00N 29°50' W 093°57'0 0.0
2018-Jul-17 05:30N 29°50' W 093°57'0 0.1
2018-Jul-17 05:00N 29°50' W 093°57'0 0.0
2018-Jul-17 04:30N 29°50' W 093°57'0 0.0
2018-Jul-17 04:00N 29°50' W 093°57'0 0.0
2018-Jul-17 03:30N 29°50' W 093°57'0 0.0
2018-Jul-17 03:00N 29°50' W 093°57'0 0.0
2018-Jul-17 02:30N 29°50' W 093°57'0 0.0
2018-Jul-17 02:00N 29°50' W 093°57'0 0.0
2018-Jul-17 01:30N 29°50' W 093°57'0 0.0
2018-Jul-17 01:00N 29°50' W 093°57'0 0.0
2018-Jul-17 00:30N 29°50' W 093°57'0 0.0
2018-Jul-16 23:30N 29°50' W 093°57'0 0.0
2018-Jul-16 23:00N 29°50' W 093°57'0 0.0
2018-Jul-16 22:30N 29°50' W 093°57'0 0.0
2018-Jul-16 22:00N 29°50' W 093°57'0 0.0
2018-Jul-16 21:30N 29°50' W 093°57'0 0.0
2018-Jul-16 21:00N 29°50' W 093°57'0 0.0
2018-Jul-16 20:30N 29°50' W 093°57'0 0.0
2018-Jul-16 20:00N 29°50' W 093°57'0 0.0
2018-Jul-16 19:30N 29°50' W 093°57'0 0.0
2018-Jul-16 19:00N 29°50' W 093°57'0 0.0
2018-Jul-16 18:30N 29°50' W 093°57'0 0.0
2018-Jul-16 18:00N 29°50' W 093°57'0 0.0
2018-Jul-16 17:30N 29°50' W 093°57'0 0.1
2018-Jul-16 17:00N 29°50' W 093°57'0 0.0
2018-Jul-16 16:30N 29°50' W 093°57'0 0.0
2018-Jul-16 16:00N 29°50' W 093°57'0 0.0
2018-Jul-16 15:30N 29°50' W 093°57'0 0.0
2018-Jul-16 15:00N 29°50' W 093°57'0 0.0
2018-Jul-16 14:30N 29°50' W 093°57'0 0.0
2018-Jul-16 14:00N 29°50' W 093°57'0 0.0
2018-Jul-16 13:30N 29°50' W 093°57'0 0.0
2018-Jul-16 13:00N 29°50' W 093°57'0 0.0
2018-Jul-16 12:30N 29°50' W 093°57'0 0.0
2018-Jul-16 12:00N 29°50' W 093°57'0 0.0
2018-Jul-16 11:30N 29°50' W 093°57'0 0.0
2018-Jul-16 11:00N 29°50' W 093°57'0 0.0
2018-Jul-16 10:30N 29°50' W 093°57'0 0.0
2018-Jul-16 10:00N 29°50' W 093°57'0 0.0
2018-Jul-16 09:30N 29°50' W 093°57'0 0.0
2018-Jul-16 09:00N 29°50' W 093°57'0 0.0
2018-Jul-16 08:30N 29°50' W 093°57'0 0.0
2018-Jul-16 08:00N 29°50' W 093°57'0 0.0
2018-Jul-16 07:30N 29°50' W 093°57'0 0.0
2018-Jul-16 07:00N 29°50' W 093°57'0 0.0
2018-Jul-16 06:30N 29°50' W 093°57'0 0.0
2018-Jul-16 06:00N 29°50' W 093°57'0 0.0
2018-Jul-16 05:30N 29°50' W 093°57'0 0.0
2018-Jul-16 05:00N 29°50' W 093°57'0 0.0
2018-Jul-16 04:30N 29°50' W 093°57'0 0.0
2018-Jul-16 04:00N 29°50' W 093°57'0 0.0
2018-Jul-16 03:30N 29°50' W 093°57'0 0.1
2018-Jul-16 03:00N 29°50' W 093°57'0 0.0
2018-Jul-16 02:30N 29°50' W 093°57'0 0.0
2018-Jul-16 02:00N 29°50' W 093°57'0 0.0
2018-Jul-16 01:30N 29°50' W 093°57'0 0.0
2018-Jul-16 01:00N 29°50' W 093°57'0 0.0
2018-Jul-16 00:30N 29°50' W 093°57'0 0.0
2018-Jul-15 23:57N 29°50' W 093°57'0 0.0
2018-Jul-15 23:30N 29°50' W 093°57'0 0.0
2018-Jul-15 23:00N 29°50' W 093°57'0 0.0
2018-Jul-15 22:30N 29°50' W 093°57'0 0.0
2018-Jul-15 22:00N 29°50' W 093°57'0 0.0
2018-Jul-15 21:30N 29°50' W 093°57'0 0.0
2018-Jul-15 21:00N 29°50' W 093°57'0 0.0
2018-Jul-15 20:30N 29°50' W 093°57'0 0.0
2018-Jul-15 20:00N 29°50' W 093°57'0 0.0
2018-Jul-15 19:30N 29°50' W 093°57'0 0.0
2018-Jul-15 19:00N 29°50' W 093°57'0 0.0
2018-Jul-15 18:30N 29°50' W 093°57'0 0.0
2018-Jul-15 18:00N 29°50' W 093°57'0 0.0
2018-Jul-15 17:30N 29°50' W 093°57'0 0.0
2018-Jul-15 17:00N 29°50' W 093°57'0 0.0
2018-Jul-15 16:30N 29°50' W 093°57'0 0.0
2018-Jul-15 16:00N 29°50' W 093°57'0 0.0
2018-Jul-15 15:30N 29°50' W 093°57'0 0.0
2018-Jul-15 15:00N 29°50' W 093°57'0 0.0
2018-Jul-15 14:30N 29°50' W 093°57'0 0.0
2018-Jul-15 14:00N 29°50' W 093°57'0 0.0
2018-Jul-15 13:30N 29°50' W 093°57'0 0.0
2018-Jul-15 13:00N 29°50' W 093°57'0 0.0
2018-Jul-15 12:30N 29°50' W 093°57'0 0.0
2018-Jul-15 12:00N 29°50' W 093°57'0 0.0
2018-Jul-15 11:30N 29°50' W 093°57'0 0.0
2018-Jul-15 11:00N 29°50' W 093°57'0 0.0
2018-Jul-15 10:30N 29°50' W 093°57'0 0.0
2018-Jul-15 10:00N 29°50' W 093°57'0 0.0
2018-Jul-15 09:30N 29°50' W 093°57'0 0.1
2018-Jul-15 09:00N 29°50' W 093°57'0 0.0
2018-Jul-15 08:30N 29°50' W 093°57'0 0.0
2018-Jul-15 08:00N 29°50' W 093°57'0 0.0
2018-Jul-15 07:30N 29°50' W 093°57'0 0.0
2018-Jul-15 07:00N 29°50' W 093°57'0 0.0
2018-Jul-15 06:30N 29°50' W 093°57'0 0.0
2018-Jul-15 06:00N 29°50' W 093°57'0 0.0
2018-Jul-15 05:30N 29°50' W 093°57'0 0.0
2018-Jul-15 05:00N 29°50' W 093°57'0 0.0
2018-Jul-15 04:30N 29°50' W 093°57'0 0.0
2018-Jul-15 04:00N 29°50' W 093°57'0 0.0
2018-Jul-15 03:30N 29°50' W 093°57'0 0.0
2018-Jul-15 03:00N 29°50' W 093°57'0 0.0
2018-Jul-15 02:30N 29°50' W 093°57'0 0.0
2018-Jul-15 02:00N 29°50' W 093°57'0 0.0
2018-Jul-15 01:30N 29°50' W 093°57'0 0.0
2018-Jul-15 01:00N 29°50' W 093°57'0 0.0
2018-Jul-15 00:30N 29°50' W 093°57'0 0.0
2018-Jul-15 00:00N 29°50' W 093°57'0 0.0
2018-Jul-14 23:30N 29°50' W 093°57'0 0.0
2018-Jul-14 23:00N 29°50' W 093°57'0 0.0
2018-Jul-14 22:30N 29°50' W 093°57'0 0.0
2018-Jul-14 22:00N 29°50' W 093°57'0 0.0
2018-Jul-14 21:30N 29°50' W 093°57'0 0.0
2018-Jul-14 21:00N 29°50' W 093°57'0 0.0
2018-Jul-14 20:30N 29°50' W 093°57'0 0.0
2018-Jul-14 20:00N 29°50' W 093°57'0 0.0
2018-Jul-14 19:30N 29°50' W 093°57'0 0.0
2018-Jul-14 19:00N 29°50' W 093°57'0 0.0
2018-Jul-14 18:30N 29°50' W 093°57'0 0.0
2018-Jul-14 18:00N 29°50' W 093°57'0 0.0
2018-Jul-14 17:30N 29°50' W 093°57'0 0.0
2018-Jul-14 17:00N 29°50' W 093°57'0 0.0
2018-Jul-14 16:30N 29°50' W 093°57'0 0.0
2018-Jul-14 15:57N 29°50' W 093°57'0 0.0
2018-Jul-14 15:30N 29°50' W 093°57'0 0.0
2018-Jul-14 15:00N 29°50' W 093°57'0 0.0
2018-Jul-14 14:30N 29°50' W 093°57'0 0.0
2018-Jul-14 13:30N 29°50' W 093°57'0 0.0
2018-Jul-14 13:00N 29°50' W 093°57'0 0.0
2018-Jul-14 12:30N 29°50' W 093°57'0 0.0
2018-Jul-14 12:00N 29°50' W 093°57'0 0.0
2018-Jul-14 11:30N 29°50' W 093°57'0 0.0
2018-Jul-14 11:00N 29°50' W 093°57'0 0.0
2018-Jul-14 10:30N 29°50' W 093°57'0 0.0
2018-Jul-14 10:00N 29°50' W 093°57'0 0.0
2018-Jul-14 09:30N 29°50' W 093°57'0 0.0
2018-Jul-14 09:00N 29°50' W 093°57'0 0.0
2018-Jul-14 08:30N 29°50' W 093°57'0 0.0
2018-Jul-14 08:00N 29°50' W 093°57'0 0.0
2018-Jul-14 07:30N 29°50' W 093°57'0 0.0
2018-Jul-14 07:00N 29°50' W 093°57'0 0.0
2018-Jul-14 06:30N 29°50' W 093°57'0 0.0
2018-Jul-14 06:00N 29°50' W 093°57'0 0.0
2018-Jul-14 05:30N 29°50' W 093°57'0 0.0
2018-Jul-14 05:00N 29°50' W 093°57'0 0.0
2018-Jul-14 04:30N 29°50' W 093°57'0 0.0
2018-Jul-14 04:00N 29°50' W 093°57'0 0.0
2018-Jul-14 03:30N 29°50' W 093°57'0 0.0
2018-Jul-14 03:00N 29°50' W 093°57'0 0.0
2018-Jul-14 02:30N 29°50' W 093°57'0 0.0
2018-Jul-14 02:00N 29°50' W 093°57'0 0.0
2018-Jul-14 01:30N 29°50' W 093°57'0 0.0
2018-Jul-14 01:00N 29°50' W 093°57'0 0.0
2018-Jul-14 00:30N 29°50' W 093°57'0 0.0
2018-Jul-14 00:00N 29°50' W 093°57'0 0.0
2018-Jul-13 23:30N 29°50' W 093°57'0 0.0
2018-Jul-13 23:00N 29°50' W 093°57'0 0.0
2018-Jul-13 22:30N 29°50' W 093°57'0 0.0
2018-Jul-13 22:00N 29°50' W 093°57'0 0.0
2018-Jul-13 21:30N 29°50' W 093°57'0 0.0
2018-Jul-13 21:00N 29°50' W 093°57'0 0.0
2018-Jul-13 20:30N 29°50' W 093°57'0 0.0
2018-Jul-13 20:00N 29°50' W 093°57'0 0.0
2018-Jul-13 19:30N 29°50' W 093°57'0 0.0
2018-Jul-13 19:00N 29°50' W 093°57'0 0.0
2018-Jul-13 18:30N 29°50' W 093°57'0 0.0
2018-Jul-13 18:00N 29°50' W 093°57'0 0.0
2018-Jul-13 17:30N 29°50' W 093°57'0 0.0
2018-Jul-13 17:00N 29°50' W 093°57'0 0.0
2018-Jul-13 16:30N 29°50' W 093°57'0 0.0
2018-Jul-13 16:00N 29°50' W 093°57'0 0.0
2018-Jul-13 15:30N 29°50' W 093°57'0 0.0
2018-Jul-13 15:00N 29°50' W 093°57'0 0.0
2018-Jul-13 14:30N 29°50' W 093°57'0 0.0
2018-Jul-13 13:30N 29°50' W 093°57'0 0.0
2018-Jul-13 13:00N 29°50' W 093°57'0 0.0
2018-Jul-13 12:30N 29°50' W 093°57'0 0.0
2018-Jul-13 12:00N 29°50' W 093°57'0 0.0
2018-Jul-13 11:30N 29°50' W 093°57'0 0.0
2018-Jul-13 11:00N 29°50' W 093°57'0 0.4
2018-Jul-13 10:31N 29°50' W 093°57'2 4.8
2018-Jul-13 10:01N 29°48' W 093°57'5 9.5
2018-Jul-13 09:30N 29°45' W 093°53'510.6
2018-Jul-13 09:00N 29°40' W 093°50'510.7
2018-Jul-13 08:30N 29°35' W 093°47'2 3.8
2018-Jul-13 08:00N 29°34' W 093°45'1 2.1
2018-Jul-13 07:30N 29°35' W 093°44'1 1.5
2018-Jul-13 06:58N 29°35' W 093°43'0 0.0
2018-Jul-13 06:28N 29°35' W 093°43'0 0.0
2018-Jul-13 05:58N 29°35' W 093°43'0 0.0
2018-Jul-13 05:28N 29°35' W 093°43'0 0.0
2018-Jul-13 04:55N 29°35' W 093°43'0 0.0
2018-Jul-13 04:28N 29°35' W 093°43'0 0.0
2018-Jul-13 03:58N 29°35' W 093°43'0 0.0
2018-Jul-13 03:28N 29°35' W 093°43'0 0.0
2018-Jul-13 02:58N 29°35' W 093°43'0 0.0
2018-Jul-13 02:28N 29°35' W 093°43'0 0.0
2018-Jul-13 01:58N 29°35' W 093°43'0 0.0
2018-Jul-13 01:28N 29°35' W 093°43'0 0.0
2018-Jul-13 00:58N 29°35' W 093°43'0 0.0
2018-Jul-13 00:28N 29°35' W 093°43'0 0.0
2018-Jul-12 23:58N 29°35' W 093°43'0 0.0
2018-Jul-12 23:28N 29°35' W 093°43'0 0.0
2018-Jul-12 22:58N 29°35' W 093°43'0 0.0
2018-Jul-12 22:28N 29°35' W 093°43'0 0.1
2018-Jul-12 21:58N 29°35' W 093°43'0 0.1
2018-Jul-12 21:28N 29°35' W 093°43'0 0.1
2018-Jul-12 20:58N 29°35' W 093°43'0 0.0
2018-Jul-12 20:28N 29°35' W 093°43'0 0.0
2018-Jul-12 19:58N 29°35' W 093°43'0 0.0
2018-Jul-12 19:25N 29°35' W 093°43'0 0.0
2018-Jul-12 18:58N 29°35' W 093°43'0 0.0
2018-Jul-12 18:28N 29°35' W 093°43'0 0.0
2018-Jul-12 17:58N 29°35' W 093°43'0 0.1
2018-Jul-12 17:28N 29°35' W 093°43'0 0.0
2018-Jul-12 16:58N 29°35' W 093°43'0 0.0
2018-Jul-12 16:25N 29°35' W 093°43'0 0.0
2018-Jul-12 15:58N 29°35' W 093°43'0 0.0
2018-Jul-12 15:28N 29°35' W 093°43'0 0.0
2018-Jul-12 14:58N 29°35' W 093°43'0 0.0
2018-Jul-12 14:28N 29°35' W 093°43'0 0.0
2018-Jul-12 13:58N 29°35' W 093°43'0 0.0
2018-Jul-12 13:28N 29°35' W 093°43'0 0.0
2018-Jul-12 12:58N 29°35' W 093°43'0 0.1
2018-Jul-12 12:28N 29°35' W 093°43'0 0.0
2018-Jul-12 11:58N 29°35' W 093°43'0 0.0
2018-Jul-12 11:28N 29°35' W 093°43'0 0.0
2018-Jul-12 10:58N 29°35' W 093°43'0 0.0
2018-Jul-12 10:28N 29°35' W 093°43'0 0.0
2018-Jul-12 09:55N 29°35' W 093°43'0 0.0
2018-Jul-12 09:28N 29°35' W 093°43'0 0.1
2018-Jul-12 08:58N 29°35' W 093°43'0 0.0
2018-Jul-12 08:28N 29°35' W 093°43'0 0.0
2018-Jul-12 07:58N 29°35' W 093°43'0 0.0
2018-Jul-12 07:28N 29°35' W 093°43'0 0.0
2018-Jul-12 06:58N 29°35' W 093°43'0 0.0
2018-Jul-12 06:25N 29°35' W 093°43'0 0.0
2018-Jul-12 05:58N 29°35' W 093°43'0 0.0
2018-Jul-12 05:28N 29°35' W 093°43'0 0.1
2018-Jul-12 04:58N 29°35' W 093°43'0 0.1
2018-Jul-12 04:28N 29°35' W 093°43'0 0.1
2018-Jul-12 03:58N 29°35' W 093°43'0 0.2
2018-Jul-12 03:28N 29°35' W 093°43'0 0.0
2018-Jul-12 02:58N 29°35' W 093°43'0 0.0
2018-Jul-12 02:28N 29°35' W 093°43'0 0.1
2018-Jul-12 01:58N 29°35' W 093°43'0 0.1
2018-Jul-12 01:28N 29°35' W 093°43'0 0.0
2018-Jul-12 00:58N 29°35' W 093°43'0 0.1
2018-Jul-12 00:28N 29°35' W 093°43'0 0.0
2018-Jul-11 23:58N 29°35' W 093°43'0 0.0
2018-Jul-11 23:28N 29°35' W 093°43'0 0.0
2018-Jul-11 22:55N 29°35' W 093°43'0 0.0
2018-Jul-11 22:28N 29°35' W 093°43'0 0.0
2018-Jul-11 21:58N 29°35' W 093°43'0 0.0
2018-Jul-11 21:28N 29°35' W 093°43'0 0.0
2018-Jul-11 20:58N 29°35' W 093°43'0 0.0
2018-Jul-11 20:28N 29°35' W 093°43'0 0.0
2018-Jul-11 19:58N 29°35' W 093°43'0 0.0
2018-Jul-11 19:28N 29°35' W 093°43'0 0.0
2018-Jul-11 18:58N 29°35' W 093°43'0 0.0
2018-Jul-11 18:28N 29°35' W 093°43'0 0.0
2018-Jul-11 17:58N 29°35' W 093°43'0 0.0
2018-Jul-11 17:25N 29°35' W 093°43'0 0.1
2018-Jul-11 16:58N 29°35' W 093°43'0 0.1
2018-Jul-11 16:25N 29°35' W 093°43'0 0.1
2018-Jul-11 15:58N 29°35' W 093°43'0 0.1
2018-Jul-11 15:25N 29°35' W 093°43'0 0.0
2018-Jul-11 14:58N 29°35' W 093°43'0 0.0
2018-Jul-11 14:28N 29°35' W 093°43'0 0.0
2018-Jul-11 13:58N 29°35' W 093°43'0 0.0
2018-Jul-11 13:28N 29°35' W 093°43'0 0.0
2018-Jul-11 12:58N 29°35' W 093°43'0 0.1
2018-Jul-11 12:28N 29°35' W 093°43'0 0.0
2018-Jul-11 11:58N 29°35' W 093°43'0 0.0
2018-Jul-11 11:28N 29°35' W 093°43'0 0.0
2018-Jul-11 10:58N 29°35' W 093°43'0 0.0
2018-Jul-11 10:28N 29°35' W 093°43'0 0.1
2018-Jul-11 09:58N 29°35' W 093°43'0 0.0
2018-Jul-11 09:28N 29°35' W 093°43'0 0.0
2018-Jul-11 08:58N 29°35' W 093°43'0 0.0
2018-Jul-11 08:28N 29°35' W 093°43'0 0.0
2018-Jul-11 07:58N 29°35' W 093°43'0 0.0
2018-Jul-11 07:28N 29°35' W 093°43'0 0.0
2018-Jul-11 06:55N 29°35' W 093°43'0 0.0
2018-Jul-11 06:25N 29°35' W 093°43'0 0.0
2018-Jul-11 05:58N 29°35' W 093°43'0 0.0
2018-Jul-11 05:25N 29°35' W 093°43'0 0.0
2018-Jul-11 04:58N 29°35' W 093°43'0 0.0
2018-Jul-11 04:28N 29°35' W 093°43'0 0.0
2018-Jul-11 03:58N 29°35' W 093°43'0 0.0
2018-Jul-11 03:28N 29°35' W 093°43'0 0.0
2018-Jul-11 02:58N 29°35' W 093°43'0 0.0
2018-Jul-11 02:28N 29°35' W 093°43'0 0.0
2018-Jul-11 01:58N 29°35' W 093°43'0 0.0
2018-Jul-11 01:28N 29°35' W 093°43'0 0.0
2018-Jul-11 00:58N 29°35' W 093°43'0 0.1
2018-Jul-11 00:28N 29°35' W 093°43'0 0.0
2018-Jul-10 23:58N 29°35' W 093°43'0 0.1
2018-Jul-10 23:28N 29°35' W 093°43'0 0.2
2018-Jul-10 22:58N 29°35' W 093°43'0 0.3
2018-Jul-10 22:30N 29°35' W 093°43'2 4.3
2018-Jul-10 22:00N 29°35' W 093°41'0 0.3
2018-Jul-10 21:26N 29°35' W 093°41'0 0.0
2018-Jul-10 20:56N 29°35' W 093°41'0 0.0
2018-Jul-10 20:29N 29°35' W 093°41'0 0.1
2018-Jul-10 19:59N 29°35' W 093°41'0 0.0
2018-Jul-10 19:29N 29°35' W 093°41'0 0.0
2018-Jul-10 18:59N 29°35' W 093°41'0 0.1
2018-Jul-10 18:29N 29°35' W 093°41'0 0.1
2018-Jul-10 17:59N 29°35' W 093°41'0 0.0
2018-Jul-10 17:29N 29°35' W 093°41'0 0.1
2018-Jul-10 16:59N 29°35' W 093°41'0 0.1
2018-Jul-10 16:29N 29°35' W 093°41'0 0.1
2018-Jul-10 15:59N 29°35' W 093°41'0 0.0
2018-Jul-10 15:29N 29°35' W 093°40'0 0.0
2018-Jul-10 14:59N 29°35' W 093°40'0 0.0
2018-Jul-10 14:26N 29°35' W 093°40'0 0.0
2018-Jul-10 13:59N 29°35' W 093°41'0 0.0
2018-Jul-10 13:29N 29°35' W 093°41'0 0.0
2018-Jul-10 12:59N 29°35' W 093°41'0 0.0
2018-Jul-10 12:29N 29°35' W 093°41'0 0.0
2018-Jul-10 11:59N 29°35' W 093°40'0 0.0
2018-Jul-10 11:29N 29°35' W 093°40'0 0.0
2018-Jul-10 10:59N 29°35' W 093°40'0 0.0
2018-Jul-10 10:29N 29°35' W 093°40'0 0.0
2018-Jul-10 09:59N 29°35' W 093°40'0 0.1
2018-Jul-10 09:29N 29°35' W 093°41'0 0.0
2018-Jul-10 08:59N 29°35' W 093°41'0 0.0
2018-Jul-10 08:29N 29°35' W 093°41'0 0.0
2018-Jul-10 07:47N 29°35' W 093°41'0 0.0
2018-Jul-10 07:29N 29°35' W 093°41'0 0.0
2018-Jul-10 06:59N 29°35' W 093°41'0 0.0
2018-Jul-10 06:29N 29°35' W 093°41'0 0.0
2018-Jul-10 05:59N 29°35' W 093°41'0 0.0
2018-Jul-10 05:26N 29°35' W 093°41'0 0.0
2018-Jul-10 04:59N 29°35' W 093°41'0 0.0
2018-Jul-10 04:26N 29°35' W 093°41'0 0.0
2018-Jul-10 03:59N 29°35' W 093°41'0 0.0
2018-Jul-10 03:29N 29°35' W 093°41'0 0.0
2018-Jul-10 02:59N 29°35' W 093°41'0 0.0
2018-Jul-10 02:29N 29°35' W 093°41'0 0.0
2018-Jul-10 01:59N 29°35' W 093°41'0 0.0
2018-Jul-10 01:29N 29°35' W 093°41'0 0.0
2018-Jul-10 00:59N 29°35' W 093°41'0 0.0
2018-Jul-10 00:29N 29°35' W 093°41'0 0.0
2018-Jul-09 23:59N 29°35' W 093°41'0 0.0
2018-Jul-09 23:29N 29°35' W 093°41'0 0.0
2018-Jul-09 22:59N 29°35' W 093°41'0 0.0
2018-Jul-09 22:29N 29°35' W 093°41'0 0.0
2018-Jul-09 21:59N 29°35' W 093°41'0 0.0
2018-Jul-09 21:29N 29°35' W 093°41'0 0.0
2018-Jul-09 20:59N 29°35' W 093°41'0 0.0
2018-Jul-09 20:29N 29°35' W 093°41'0 0.0
2018-Jul-09 19:59N 29°35' W 093°41'0 0.0
2018-Jul-09 19:29N 29°35' W 093°41'0 0.0
2018-Jul-09 18:59N 29°35' W 093°41'0 0.0
2018-Jul-09 18:29N 29°35' W 093°41'0 0.0
2018-Jul-09 17:59N 29°35' W 093°41'0 0.0
2018-Jul-09 17:29N 29°35' W 093°41'0 0.0
2018-Jul-09 16:59N 29°35' W 093°41'0 0.0
2018-Jul-09 16:29N 29°35' W 093°41'0 0.0
2018-Jul-09 15:59N 29°35' W 093°41'0 0.0
2018-Jul-09 15:29N 29°35' W 093°41'0 0.0
2018-Jul-09 14:59N 29°35' W 093°41'0 0.2
2018-Jul-09 14:26N 29°35' W 093°41'0 0.2
2018-Jul-09 13:59N 29°35' W 093°40'0 0.1
2018-Jul-09 13:29N 29°35' W 093°40'0 0.0
2018-Jul-09 12:59N 29°35' W 093°40'0 0.0
2018-Jul-09 12:29N 29°35' W 093°40'0 0.1
2018-Jul-09 11:59N 29°35' W 093°41'0 0.0
2018-Jul-09 11:29N 29°35' W 093°41'0 0.1
2018-Jul-09 10:59N 29°35' W 093°40'0 0.1
2018-Jul-09 10:29N 29°35' W 093°41'0 0.0
2018-Jul-09 09:59N 29°35' W 093°41'0 0.0
2018-Jul-09 09:26N 29°35' W 093°40'0 0.0
2018-Jul-09 08:59N 29°35' W 093°40'0 0.1
2018-Jul-09 08:29N 29°35' W 093°41'0 0.0
2018-Jul-09 07:59N 29°35' W 093°40'0 0.0
2018-Jul-09 07:29N 29°35' W 093°41'0 0.0
2018-Jul-09 06:59N 29°35' W 093°40'0 0.0
2018-Jul-09 06:29N 29°35' W 093°40'0 0.0
2018-Jul-09 05:59N 29°35' W 093°41'0 0.0
2018-Jul-09 05:29N 29°35' W 093°40'0 0.0
2018-Jul-09 04:59N 29°35' W 093°40'0 0.0
2018-Jul-09 04:29N 29°35' W 093°40'0 0.0
2018-Jul-09 03:59N 29°35' W 093°41'0 0.0
2018-Jul-09 03:29N 29°35' W 093°41'0 0.0
2018-Jul-09 02:59N 29°35' W 093°41'0 0.0
2018-Jul-09 02:29N 29°35' W 093°40'0 0.0
2018-Jul-09 01:59N 29°35' W 093°40'0 0.0
2018-Jul-09 01:29N 29°35' W 093°40'0 0.0
2018-Jul-09 00:59N 29°35' W 093°40'0 0.0
2018-Jul-09 00:29N 29°35' W 093°40'0 0.0
2018-Jul-08 23:59N 29°35' W 093°40'0 0.0
2018-Jul-08 23:29N 29°35' W 093°40'0 0.0
2018-Jul-08 22:56N 29°35' W 093°40'0 0.0
2018-Jul-08 22:29N 29°35' W 093°40'0 0.1
2018-Jul-08 21:59N 29°35' W 093°41'0 0.1
2018-Jul-08 21:29N 29°35' W 093°40'0 0.1
2018-Jul-08 20:59N 29°35' W 093°40'0 0.0
2018-Jul-08 20:29N 29°35' W 093°40'0 0.0
2018-Jul-08 19:59N 29°35' W 093°40'0 0.0
2018-Jul-08 19:26N 29°35' W 093°40'0 0.0
2018-Jul-08 18:59N 29°35' W 093°40'0 0.0
2018-Jul-08 18:29N 29°35' W 093°40'0 0.0
2018-Jul-08 17:59N 29°35' W 093°40'0 0.1
2018-Jul-08 17:29N 29°35' W 093°41'0 0.1
2018-Jul-08 16:59N 29°35' W 093°41'0 0.1
2018-Jul-08 16:29N 29°35' W 093°41'0 0.1
2018-Jul-08 15:59N 29°35' W 093°41'0 0.1
2018-Jul-08 15:26N 29°35' W 093°41'0 0.2
2018-Jul-08 14:59N 29°35' W 093°40'0 0.2
2018-Jul-08 14:29N 29°35' W 093°40'0 0.1
2018-Jul-08 13:59N 29°35' W 093°40'0 0.0
2018-Jul-08 13:29N 29°35' W 093°40'0 0.0
2018-Jul-08 12:59N 29°35' W 093°40'0 0.1
2018-Jul-08 12:29N 29°35' W 093°40'0 0.0
2018-Jul-08 11:59N 29°35' W 093°40'0 0.1
2018-Jul-08 11:29N 29°35' W 093°40'0 0.1
2018-Jul-08 10:59N 29°35' W 093°40'0 0.1
2018-Jul-08 10:29N 29°35' W 093°40'0 0.1
2018-Jul-08 09:59N 29°35' W 093°40'0 0.1
2018-Jul-08 09:29N 29°35' W 093°40'0 0.1
2018-Jul-08 08:59N 29°35' W 093°40'0 0.1
2018-Jul-08 08:29N 29°35' W 093°40'0 0.2
2018-Jul-08 07:59N 29°35' W 093°40'0 0.0
2018-Jul-08 07:29N 29°35' W 093°41'0 0.0
2018-Jul-08 06:59N 29°35' W 093°41'0 0.0
2018-Jul-08 06:29N 29°35' W 093°41'0 0.0
2018-Jul-08 05:59N 29°35' W 093°41'0 0.0
2018-Jul-08 05:29N 29°35' W 093°41'0 0.0
2018-Jul-08 04:59N 29°35' W 093°41'  
Track history (hours):
 
Tides and Currents Weather Stations Pressure Air Temp Water Temp Dewpoint Dewpoint Depression Visibility Wind Speed Wind Dir Waves Ship Positions

Matsu Arrow

Last reported at 2018-Jul-18 04:57 UTC. Time now 2018-Jul-18 04:58 UTC.
Position N 28°39' W 093°16'.

Length 190 m; draft 10 m.

Type: Cargo ship. MMSI: 351805000.

Date/timePositionNaut miles runAvg speedWind from/ knotsBaromVisibWave heightAir tempDewpointWater temp
2018-Jul-18 04:57N 28°39' W 093°16'611.6
2018-Jul-18 04:28N 28°43' W 093°19'611.7
2018-Jul-18 03:59N 28°48' W 093°23'611.8
2018-Jul-18 03:28N 28°53' W 093°27'711.3
2018-Jul-18 02:53N 28°59' W 093°31'411.3
2018-Jul-18 02:30N 29°02' W 093°34'611.6
2018-Jul-18 02:00N 29°07' W 093°38'1510.4
2018-Jul-18 00:31N 29°22' W 093°40'1 9.9
2018-Jul-18 00:25N 29°23' W 093°40'5 8.5
2018-Jul-17 23:52N 29°28' W 093°40'3 9.5
2018-Jul-17 23:30N 29°31' W 093°42'510.4
2018-Jul-17 23:00N 29°34' W 093°46'510.0
2018-Jul-17 22:30N 29°38' W 093°49'5 9.9
2018-Jul-17 22:00N 29°43' W 093°51'4 7.6
2018-Jul-17 21:31N 29°46' W 093°55'4 7.9
2018-Jul-17 21:01N 29°49' W 093°57'1 2.9
2018-Jul-17 20:30N 29°50' W 093°57'0 0.0
2018-Jul-17 20:00N 29°50' W 093°57'0 0.0
2018-Jul-17 19:30N 29°50' W 093°57'0 0.0
2018-Jul-17 19:00N 29°50' W 093°57'0 0.0
2018-Jul-17 18:30N 29°50' W 093°57'0 0.0
2018-Jul-17 17:57N 29°50' W 093°57'0 0.0
2018-Jul-17 17:30N 29°50' W 093°57'0 0.0
2018-Jul-17 17:00N 29°50' W 093°57'0 0.0
2018-Jul-17 16:30N 29°50' W 093°57'0 0.0
2018-Jul-17 16:00N 29°50' W 093°57'0 0.0
2018-Jul-17 15:30N 29°50' W 093°57'0 0.0
2018-Jul-17 15:00N 29°50' W 093°57'0 0.0
2018-Jul-17 14:30N 29°50' W 093°57'0 0.0
2018-Jul-17 14:00N 29°50' W 093°57'0 0.1
2018-Jul-17 13:30N 29°50' W 093°57'0 0.0
2018-Jul-17 13:00N 29°50' W 093°57'0 0.0
2018-Jul-17 12:30N 29°50' W 093°57'0 0.0
2018-Jul-17 12:00N 29°50' W 093°57'0 0.0
2018-Jul-17 11:30N 29°50' W 093°57'0 0.0
2018-Jul-17 11:00N 29°50' W 093°57'0 0.0
2018-Jul-17 10:30N 29°50' W 093°57'0 0.0
2018-Jul-17 10:00N 29°50' W 093°57'0 0.0
2018-Jul-17 09:30N 29°50' W 093°57'0 0.0
2018-Jul-17 09:00N 29°50' W 093°57'0 0.0
2018-Jul-17 08:30N 29°50' W 093°57'0 0.0
2018-Jul-17 08:00N 29°50' W 093°57'0 0.0
2018-Jul-17 07:30N 29°50' W 093°57'0 0.0
2018-Jul-17 07:00N 29°50' W 093°57'0 0.0
2018-Jul-17 06:30N 29°50' W 093°57'0 0.0
2018-Jul-17 06:00N 29°50' W 093°57'0 0.0
2018-Jul-17 05:30N 29°50' W 093°57'0 0.1
2018-Jul-17 05:00N 29°50' W 093°57'0 0.0
2018-Jul-17 04:30N 29°50' W 093°57'0 0.0
2018-Jul-17 04:00N 29°50' W 093°57'0 0.0
2018-Jul-17 03:30N 29°50' W 093°57'0 0.0
2018-Jul-17 03:00N 29°50' W 093°57'0 0.0
2018-Jul-17 02:30N 29°50' W 093°57'0 0.0
2018-Jul-17 02:00N 29°50' W 093°57'0 0.0
2018-Jul-17 01:30N 29°50' W 093°57'0 0.0
2018-Jul-17 01:00N 29°50' W 093°57'0 0.0
2018-Jul-17 00:30N 29°50' W 093°57'0 0.0
2018-Jul-16 23:30N 29°50' W 093°57'0 0.0
2018-Jul-16 23:00N 29°50' W 093°57'0 0.0
2018-Jul-16 22:30N 29°50' W 093°57'0 0.0
2018-Jul-16 22:00N 29°50' W 093°57'0 0.0
2018-Jul-16 21:30N 29°50' W 093°57'0 0.0
2018-Jul-16 21:00N 29°50' W 093°57'0 0.0
2018-Jul-16 20:30N 29°50' W 093°57'0 0.0
2018-Jul-16 20:00N 29°50' W 093°57'0 0.0
2018-Jul-16 19:30N 29°50' W 093°57'0 0.0
2018-Jul-16 19:00N 29°50' W 093°57'0 0.0
2018-Jul-16 18:30N 29°50' W 093°57'0 0.0
2018-Jul-16 18:00N 29°50' W 093°57'0 0.0
2018-Jul-16 17:30N 29°50' W 093°57'0 0.1
2018-Jul-16 17:00N 29°50' W 093°57'0 0.0
2018-Jul-16 16:30N 29°50' W 093°57'0 0.0
2018-Jul-16 16:00N 29°50' W 093°57'0 0.0
2018-Jul-16 15:30N 29°50' W 093°57'0 0.0
2018-Jul-16 15:00N 29°50' W 093°57'0 0.0
2018-Jul-16 14:30N 29°50' W 093°57'0 0.0
2018-Jul-16 14:00N 29°50' W 093°57'0 0.0
2018-Jul-16 13:30N 29°50' W 093°57'0 0.0
2018-Jul-16 13:00N 29°50' W 093°57'0 0.0
2018-Jul-16 12:30N 29°50' W 093°57'0 0.0
2018-Jul-16 12:00N 29°50' W 093°57'0 0.0
2018-Jul-16 11:30N 29°50' W 093°57'0 0.0
2018-Jul-16 11:00N 29°50' W 093°57'0 0.0
2018-Jul-16 10:30N 29°50' W 093°57'0 0.0
2018-Jul-16 10:00N 29°50' W 093°57'0 0.0
2018-Jul-16 09:30N 29°50' W 093°57'0 0.0
2018-Jul-16 09:00N 29°50' W 093°57'0 0.0
2018-Jul-16 08:30N 29°50' W 093°57'0 0.0
2018-Jul-16 08:00N 29°50' W 093°57'0 0.0
2018-Jul-16 07:30N 29°50' W 093°57'0 0.0
2018-Jul-16 07:00N 29°50' W 093°57'0 0.0
2018-Jul-16 06:30N 29°50' W 093°57'0 0.0
2018-Jul-16 06:00N 29°50' W 093°57'0 0.0
2018-Jul-16 05:30N 29°50' W 093°57'0 0.0
2018-Jul-16 05:00N 29°50' W 093°57'0 0.0
2018-Jul-16 04:30N 29°50' W 093°57'0 0.0
2018-Jul-16 04:00N 29°50' W 093°57'0 0.0
2018-Jul-16 03:30N 29°50' W 093°57'0 0.1
2018-Jul-16 03:00N 29°50' W 093°57'0 0.0
2018-Jul-16 02:30N 29°50' W 093°57'0 0.0
2018-Jul-16 02:00N 29°50' W 093°57'0 0.0
2018-Jul-16 01:30N 29°50' W 093°57'0 0.0
2018-Jul-16 01:00N 29°50' W 093°57'0 0.0
2018-Jul-16 00:30N 29°50' W 093°57'0 0.0
2018-Jul-15 23:57N 29°50' W 093°57'0 0.0
2018-Jul-15 23:30N 29°50' W 093°57'0 0.0
2018-Jul-15 23:00N 29°50' W 093°57'0 0.0
2018-Jul-15 22:30N 29°50' W 093°57'0 0.0
2018-Jul-15 22:00N 29°50' W 093°57'0 0.0
2018-Jul-15 21:30N 29°50' W 093°57'0 0.0
2018-Jul-15 21:00N 29°50' W 093°57'0 0.0
2018-Jul-15 20:30N 29°50' W 093°57'0 0.0
2018-Jul-15 20:00N 29°50' W 093°57'0 0.0
2018-Jul-15 19:30N 29°50' W 093°57'0 0.0
2018-Jul-15 19:00N 29°50' W 093°57'0 0.0
2018-Jul-15 18:30N 29°50' W 093°57'0 0.0
2018-Jul-15 18:00N 29°50' W 093°57'0 0.0
2018-Jul-15 17:30N 29°50' W 093°57'0 0.0
2018-Jul-15 17:00N 29°50' W 093°57'0 0.0
2018-Jul-15 16:30N 29°50' W 093°57'0 0.0
2018-Jul-15 16:00N 29°50' W 093°57'0 0.0
2018-Jul-15 15:30N 29°50' W 093°57'0 0.0
2018-Jul-15 15:00N 29°50' W 093°57'0 0.0
2018-Jul-15 14:30N 29°50' W 093°57'0 0.0
2018-Jul-15 14:00N 29°50' W 093°57'0 0.0
2018-Jul-15 13:30N 29°50' W 093°57'0 0.0
2018-Jul-15 13:00N 29°50' W 093°57'0 0.0
2018-Jul-15 12:30N 29°50' W 093°57'0 0.0
2018-Jul-15 12:00N 29°50' W 093°57'0 0.0
2018-Jul-15 11:30N 29°50' W 093°57'0 0.0
2018-Jul-15 11:00N 29°50' W 093°57'0 0.0
2018-Jul-15 10:30N 29°50' W 093°57'0 0.0
2018-Jul-15 10:00N 29°50' W 093°57'0 0.0
2018-Jul-15 09:30N 29°50' W 093°57'0 0.1
2018-Jul-15 09:00N 29°50' W 093°57'0 0.0
2018-Jul-15 08:30N 29°50' W 093°57'0 0.0
2018-Jul-15 08:00N 29°50' W 093°57'0 0.0
2018-Jul-15 07:30N 29°50' W 093°57'0 0.0
2018-Jul-15 07:00N 29°50' W 093°57'0 0.0
2018-Jul-15 06:30N 29°50' W 093°57'0 0.0
2018-Jul-15 06:00N 29°50' W 093°57'0 0.0
2018-Jul-15 05:30N 29°50' W 093°57'0 0.0
2018-Jul-15 05:00N 29°50' W 093°57'0 0.0
2018-Jul-15 04:30N 29°50' W 093°57'0 0.0
2018-Jul-15 04:00N 29°50' W 093°57'0 0.0
2018-Jul-15 03:30N 29°50' W 093°57'0 0.0
2018-Jul-15 03:00N 29°50' W 093°57'0 0.0
2018-Jul-15 02:30N 29°50' W 093°57'0 0.0
2018-Jul-15 02:00N 29°50' W 093°57'0 0.0
2018-Jul-15 01:30N 29°50' W 093°57'0 0.0
2018-Jul-15 01:00N 29°50' W 093°57'0 0.0
2018-Jul-15 00:30N 29°50' W 093°57'0 0.0
2018-Jul-15 00:00N 29°50' W 093°57'0 0.0
2018-Jul-14 23:30N 29°50' W 093°57'0 0.0
2018-Jul-14 23:00N 29°50' W 093°57'0 0.0
2018-Jul-14 22:30N 29°50' W 093°57'0 0.0
2018-Jul-14 22:00N 29°50' W 093°57'0 0.0
2018-Jul-14 21:30N 29°50' W 093°57'0 0.0
2018-Jul-14 21:00N 29°50' W 093°57'0 0.0
2018-Jul-14 20:30N 29°50' W 093°57'0 0.0
2018-Jul-14 20:00N 29°50' W 093°57'0 0.0
2018-Jul-14 19:30N 29°50' W 093°57'0 0.0
2018-Jul-14 19:00N 29°50' W 093°57'0 0.0
2018-Jul-14 18:30N 29°50' W 093°57'0 0.0
2018-Jul-14 18:00N 29°50' W 093°57'0 0.0
2018-Jul-14 17:30N 29°50' W 093°57'0 0.0
2018-Jul-14 17:00N 29°50' W 093°57'0 0.0
2018-Jul-14 16:30N 29°50' W 093°57'0 0.0
2018-Jul-14 15:57N 29°50' W 093°57'0 0.0
2018-Jul-14 15:30N 29°50' W 093°57'0 0.0
2018-Jul-14 15:00N 29°50' W 093°57'0 0.0
2018-Jul-14 14:30N 29°50' W 093°57'0 0.0
2018-Jul-14 13:30N 29°50' W 093°57'0 0.0
2018-Jul-14 13:00N 29°50' W 093°57'0 0.0
2018-Jul-14 12:30N 29°50' W 093°57'0 0.0
2018-Jul-14 12:00N 29°50' W 093°57'0 0.0
2018-Jul-14 11:30N 29°50' W 093°57'0 0.0
2018-Jul-14 11:00N 29°50' W 093°57'0 0.0
2018-Jul-14 10:30N 29°50' W 093°57'0 0.0
2018-Jul-14 10:00N 29°50' W 093°57'0 0.0
2018-Jul-14 09:30N 29°50' W 093°57'0 0.0
2018-Jul-14 09:00N 29°50' W 093°57'0 0.0
2018-Jul-14 08:30N 29°50' W 093°57'0 0.0
2018-Jul-14 08:00N 29°50' W 093°57'0 0.0
2018-Jul-14 07:30N 29°50' W 093°57'0 0.0
2018-Jul-14 07:00N 29°50' W 093°57'0 0.0
2018-Jul-14 06:30N 29°50' W 093°57'0 0.0
2018-Jul-14 06:00N 29°50' W 093°57'0 0.0
2018-Jul-14 05:30N 29°50' W 093°57'0 0.0
2018-Jul-14 05:00N 29°50' W 093°57'0 0.0
2018-Jul-14 04:30N 29°50' W 093°57'0 0.0
2018-Jul-14 04:00N 29°50' W 093°57'0 0.0
2018-Jul-14 03:30N 29°50' W 093°57'0 0.0
2018-Jul-14 03:00N 29°50' W 093°57'0 0.0
2018-Jul-14 02:30N 29°50' W 093°57'0 0.0
2018-Jul-14 02:00N 29°50' W 093°57'0 0.0
2018-Jul-14 01:30N 29°50' W 093°57'0 0.0
2018-Jul-14 01:00N 29°50' W 093°57'0 0.0
2018-Jul-14 00:30N 29°50' W 093°57'0 0.0
2018-Jul-14 00:00N 29°50' W 093°57'0 0.0
2018-Jul-13 23:30N 29°50' W 093°57'0 0.0
2018-Jul-13 23:00N 29°50' W 093°57'0 0.0
2018-Jul-13 22:30N 29°50' W 093°57'0 0.0
2018-Jul-13 22:00N 29°50' W 093°57'0 0.0
2018-Jul-13 21:30N 29°50' W 093°57'0 0.0
2018-Jul-13 21:00N 29°50' W 093°57'0 0.0
2018-Jul-13 20:30N 29°50' W 093°57'0 0.0
2018-Jul-13 20:00N 29°50' W 093°57'0 0.0
2018-Jul-13 19:30N 29°50' W 093°57'0 0.0
2018-Jul-13 19:00N 29°50' W 093°57'0 0.0
2018-Jul-13 18:30N 29°50' W 093°57'0 0.0
2018-Jul-13 18:00N 29°50' W 093°57'0 0.0
2018-Jul-13 17:30N 29°50' W 093°57'0 0.0
2018-Jul-13 17:00N 29°50' W 093°57'0 0.0
2018-Jul-13 16:30N 29°50' W 093°57'0 0.0
2018-Jul-13 16:00N 29°50' W 093°57'0 0.0
2018-Jul-13 15:30N 29°50' W 093°57'0 0.0
2018-Jul-13 15:00N 29°50' W 093°57'0 0.0
2018-Jul-13 14:30N 29°50' W 093°57'0 0.0
2018-Jul-13 13:30N 29°50' W 093°57'0 0.0
2018-Jul-13 13:00N 29°50' W 093°57'0 0.0
2018-Jul-13 12:30N 29°50' W 093°57'0 0.0
2018-Jul-13 12:00N 29°50' W 093°57'0 0.0
2018-Jul-13 11:30N 29°50' W 093°57'0 0.0
2018-Jul-13 11:00N 29°50' W 093°57'0 0.4
2018-Jul-13 10:31N 29°50' W 093°57'2 4.8
2018-Jul-13 10:01N 29°48' W 093°57'5 9.5
2018-Jul-13 09:30N 29°45' W 093°53'510.6
2018-Jul-13 09:00N 29°40' W 093°50'510.7
2018-Jul-13 08:30N 29°35' W 093°47'2 3.8
2018-Jul-13 08:00N 29°34' W 093°45'1 2.1
2018-Jul-13 07:30N 29°35' W 093°44'1 1.5
2018-Jul-13 06:58N 29°35' W 093°43'0 0.0
2018-Jul-13 06:28N 29°35' W 093°43'0 0.0
2018-Jul-13 05:58N 29°35' W 093°43'0 0.0
2018-Jul-13 05:28N 29°35' W 093°43'0 0.0
2018-Jul-13 04:55N 29°35' W 093°43'0 0.0
2018-Jul-13 04:28N 29°35' W 093°43'0 0.0
2018-Jul-13 03:58N 29°35' W 093°43'0 0.0
2018-Jul-13 03:28N 29°35' W 093°43'0 0.0
2018-Jul-13 02:58N 29°35' W 093°43'0 0.0
2018-Jul-13 02:28N 29°35' W 093°43'0 0.0
2018-Jul-13 01:58N 29°35' W 093°43'0 0.0
2018-Jul-13 01:28N 29°35' W 093°43'0 0.0
2018-Jul-13 00:58N 29°35' W 093°43'0 0.0
2018-Jul-13 00:28N 29°35' W 093°43'0 0.0
2018-Jul-12 23:58N 29°35' W 093°43'0 0.0
2018-Jul-12 23:28N 29°35' W 093°43'0 0.0
2018-Jul-12 22:58N 29°35' W 093°43'0 0.0
2018-Jul-12 22:28N 29°35' W 093°43'0 0.1
2018-Jul-12 21:58N 29°35' W 093°43'0 0.1
2018-Jul-12 21:28N 29°35' W 093°43'0 0.1
2018-Jul-12 20:58N 29°35' W 093°43'0 0.0
2018-Jul-12 20:28N 29°35' W 093°43'0 0.0
2018-Jul-12 19:58N 29°35' W 093°43'0 0.0
2018-Jul-12 19:25N 29°35' W 093°43'0 0.0
2018-Jul-12 18:58N 29°35' W 093°43'0 0.0
2018-Jul-12 18:28N 29°35' W 093°43'0 0.0
2018-Jul-12 17:58N 29°35' W 093°43'0 0.1
2018-Jul-12 17:28N 29°35' W 093°43'0 0.0
2018-Jul-12 16:58N 29°35' W 093°43'0 0.0
2018-Jul-12 16:25N 29°35' W 093°43'0 0.0
2018-Jul-12 15:58N 29°35' W 093°43'0 0.0
2018-Jul-12 15:28N 29°35' W 093°43'0 0.0
2018-Jul-12 14:58N 29°35' W 093°43'0 0.0
2018-Jul-12 14:28N 29°35' W 093°43'0 0.0
2018-Jul-12 13:58N 29°35' W 093°43'0 0.0
2018-Jul-12 13:28N 29°35' W 093°43'0 0.0
2018-Jul-12 12:58N 29°35' W 093°43'0 0.1
2018-Jul-12 12:28N 29°35' W 093°43'0 0.0
2018-Jul-12 11:58N 29°35' W 093°43'0 0.0
2018-Jul-12 11:28N 29°35' W 093°43'0 0.0
2018-Jul-12 10:58N 29°35' W 093°43'0 0.0
2018-Jul-12 10:28N 29°35' W 093°43'0 0.0
2018-Jul-12 09:55N 29°35' W 093°43'0 0.0
2018-Jul-12 09:28N 29°35' W 093°43'0 0.1
2018-Jul-12 08:58N 29°35' W 093°43'0 0.0
2018-Jul-12 08:28N 29°35' W 093°43'0 0.0
2018-Jul-12 07:58N 29°35' W 093°43'0 0.0
2018-Jul-12 07:28N 29°35' W 093°43'0 0.0
2018-Jul-12 06:58N 29°35' W 093°43'0 0.0
2018-Jul-12 06:25N 29°35' W 093°43'0 0.0
2018-Jul-12 05:58N 29°35' W 093°43'0 0.0
2018-Jul-12 05:28N 29°35' W 093°43'0 0.1
2018-Jul-12 04:58N 29°35' W 093°43'0 0.1
2018-Jul-12 04:28N 29°35' W 093°43'0 0.1
2018-Jul-12 03:58N 29°35' W 093°43'0 0.2
2018-Jul-12 03:28N 29°35' W 093°43'0 0.0
2018-Jul-12 02:58N 29°35' W 093°43'0 0.0
2018-Jul-12 02:28N 29°35' W 093°43'0 0.1
2018-Jul-12 01:58N 29°35' W 093°43'0 0.1
2018-Jul-12 01:28N 29°35' W 093°43'0 0.0
2018-Jul-12 00:58N 29°35' W 093°43'0 0.1
2018-Jul-12 00:28N 29°35' W 093°43'0 0.0
2018-Jul-11 23:58N 29°35' W 093°43'0 0.0
2018-Jul-11 23:28N 29°35' W 093°43'0 0.0
2018-Jul-11 22:55N 29°35' W 093°43'0 0.0
2018-Jul-11 22:28N 29°35' W 093°43'0 0.0
2018-Jul-11 21:58N 29°35' W 093°43'0 0.0
2018-Jul-11 21:28N 29°35' W 093°43'0 0.0
2018-Jul-11 20:58N 29°35' W 093°43'0 0.0
2018-Jul-11 20:28N 29°35' W 093°43'0 0.0
2018-Jul-11 19:58N 29°35' W 093°43'0 0.0
2018-Jul-11 19:28N 29°35' W 093°43'0 0.0
2018-Jul-11 18:58N 29°35' W 093°43'0 0.0
2018-Jul-11 18:28N 29°35' W 093°43'0 0.0
2018-Jul-11 17:58N 29°35' W 093°43'0 0.0
2018-Jul-11 17:25N 29°35' W 093°43'0 0.1
2018-Jul-11 16:58N 29°35' W 093°43'0 0.1
2018-Jul-11 16:25N 29°35' W 093°43'0 0.1
2018-Jul-11 15:58N 29°35' W 093°43'0 0.1
2018-Jul-11 15:25N 29°35' W 093°43'0 0.0
2018-Jul-11 14:58N 29°35' W 093°43'0 0.0
2018-Jul-11 14:28N 29°35' W 093°43'0 0.0
2018-Jul-11 13:58N 29°35' W 093°43'0 0.0
2018-Jul-11 13:28N 29°35' W 093°43'0 0.0
2018-Jul-11 12:58N 29°35' W 093°43'0 0.1
2018-Jul-11 12:28N 29°35' W 093°43'0 0.0
2018-Jul-11 11:58N 29°35' W 093°43'0 0.0
2018-Jul-11 11:28N 29°35' W 093°43'0 0.0
2018-Jul-11 10:58N 29°35' W 093°43'0 0.0
2018-Jul-11 10:28N 29°35' W 093°43'0 0.1
2018-Jul-11 09:58N 29°35' W 093°43'0 0.0
2018-Jul-11 09:28N 29°35' W 093°43'0 0.0
2018-Jul-11 08:58N 29°35' W 093°43'0 0.0
2018-Jul-11 08:28N 29°35' W 093°43'0 0.0
2018-Jul-11 07:58N 29°35' W 093°43'0 0.0
2018-Jul-11 07:28N 29°35' W 093°43'0 0.0
2018-Jul-11 06:55N 29°35' W 093°43'0 0.0
2018-Jul-11 06:25N 29°35' W 093°43'0 0.0
2018-Jul-11 05:58N 29°35' W 093°43'0 0.0
2018-Jul-11 05:25N 29°35' W 093°43'0 0.0
2018-Jul-11 04:58N 29°35' W 093°43'0 0.0
2018-Jul-11 04:28N 29°35' W 093°43'0 0.0
2018-Jul-11 03:58N 29°35' W 093°43'0 0.0
2018-Jul-11 03:28N 29°35' W 093°43'0 0.0
2018-Jul-11 02:58N 29°35' W 093°43'0 0.0
2018-Jul-11 02:28N 29°35' W 093°43'0 0.0
2018-Jul-11 01:58N 29°35' W 093°43'0 0.0
2018-Jul-11 01:28N 29°35' W 093°43'0 0.0
2018-Jul-11 00:58N 29°35' W 093°43'0 0.1
2018-Jul-11 00:28N 29°35' W 093°43'0 0.0
2018-Jul-10 23:58N 29°35' W 093°43'0 0.1
2018-Jul-10 23:28N 29°35' W 093°43'0 0.2
2018-Jul-10 22:58N 29°35' W 093°43'0 0.3
2018-Jul-10 22:30N 29°35' W 093°43'2 4.3
2018-Jul-10 22:00N 29°35' W 093°41'0 0.3
2018-Jul-10 21:26N 29°35' W 093°41'0 0.0
2018-Jul-10 20:56N 29°35' W 093°41'0 0.0
2018-Jul-10 20:29N 29°35' W 093°41'0 0.1
2018-Jul-10 19:59N 29°35' W 093°41'0 0.0
2018-Jul-10 19:29N 29°35' W 093°41'0 0.0
2018-Jul-10 18:59N 29°35' W 093°41'0 0.1
2018-Jul-10 18:29N 29°35' W 093°41'0 0.1
2018-Jul-10 17:59N 29°35' W 093°41'0 0.0
2018-Jul-10 17:29N 29°35' W 093°41'0 0.1
2018-Jul-10 16:59N 29°35' W 093°41'0 0.1
2018-Jul-10 16:29N 29°35' W 093°41'0 0.1
2018-Jul-10 15:59N 29°35' W 093°41'0 0.0
2018-Jul-10 15:29N 29°35' W 093°40'0 0.0
2018-Jul-10 14:59N 29°35' W 093°40'0 0.0
2018-Jul-10 14:26N 29°35' W 093°40'0 0.0
2018-Jul-10 13:59N 29°35' W 093°41'0 0.0
2018-Jul-10 13:29N 29°35' W 093°41'0 0.0
2018-Jul-10 12:59N 29°35' W 093°41'0 0.0
2018-Jul-10 12:29N 29°35' W 093°41'0 0.0
2018-Jul-10 11:59N 29°35' W 093°40'0 0.0
2018-Jul-10 11:29N 29°35' W 093°40'0 0.0
2018-Jul-10 10:59N 29°35' W 093°40'0 0.0
2018-Jul-10 10:29N 29°35' W 093°40'0 0.0
2018-Jul-10 09:59N 29°35' W 093°40'0 0.1
2018-Jul-10 09:29N 29°35' W 093°41'0 0.0
2018-Jul-10 08:59N 29°35' W 093°41'0 0.0
2018-Jul-10 08:29N 29°35' W 093°41'0 0.0
2018-Jul-10 07:47N 29°35' W 093°41'0 0.0
2018-Jul-10 07:29N 29°35' W 093°41'0 0.0
2018-Jul-10 06:59N 29°35' W 093°41'0 0.0
2018-Jul-10 06:29N 29°35' W 093°41'0 0.0
2018-Jul-10 05:59N 29°35' W 093°41'0 0.0
2018-Jul-10 05:26N 29°35' W 093°41'0 0.0
2018-Jul-10 04:59N 29°35' W 093°41'0 0.0
2018-Jul-10 04:26N 29°35' W 093°41'0 0.0
2018-Jul-10 03:59N 29°35' W 093°41'0 0.0
2018-Jul-10 03:29N 29°35' W 093°41'0 0.0
2018-Jul-10 02:59N 29°35' W 093°41'0 0.0
2018-Jul-10 02:29N 29°35' W 093°41'0 0.0
2018-Jul-10 01:59N 29°35' W 093°41'0 0.0
2018-Jul-10 01:29N 29°35' W 093°41'0 0.0
2018-Jul-10 00:59N 29°35' W 093°41'0 0.0
2018-Jul-10 00:29N 29°35' W 093°41'0 0.0
2018-Jul-09 23:59N 29°35' W 093°41'0 0.0
2018-Jul-09 23:29N 29°35' W 093°41'0 0.0
2018-Jul-09 22:59N 29°35' W 093°41'0 0.0
2018-Jul-09 22:29N 29°35' W 093°41'0 0.0
2018-Jul-09 21:59N 29°35' W 093°41'0 0.0
2018-Jul-09 21:29N 29°35' W 093°41'0 0.0
2018-Jul-09 20:59N 29°35' W 093°41'0 0.0
2018-Jul-09 20:29N 29°35' W 093°41'0 0.0
2018-Jul-09 19:59N 29°35' W 093°41'0 0.0
2018-Jul-09 19:29N 29°35' W 093°41'0 0.0
2018-Jul-09 18:59N 29°35' W 093°41'0 0.0
2018-Jul-09 18:29N 29°35' W 093°41'0 0.0
2018-Jul-09 17:59N 29°35' W 093°41'0 0.0
2018-Jul-09 17:29N 29°35' W 093°41'0 0.0
2018-Jul-09 16:59N 29°35' W 093°41'0 0.0
2018-Jul-09 16:29N 29°35' W 093°41'0 0.0
2018-Jul-09 15:59N 29°35' W 093°41'0 0.0
2018-Jul-09 15:29N 29°35' W 093°41'0 0.0
2018-Jul-09 14:59N 29°35' W 093°41'0 0.2
2018-Jul-09 14:26N 29°35' W 093°41'0 0.2
2018-Jul-09 13:59N 29°35' W 093°40'0 0.1
2018-Jul-09 13:29N 29°35' W 093°40'0 0.0
2018-Jul-09 12:59N 29°35' W 093°40'0 0.0
2018-Jul-09 12:29N 29°35' W 093°40'0 0.1
2018-Jul-09 11:59N 29°35' W 093°41'0 0.0
2018-Jul-09 11:29N 29°35' W 093°41'0 0.1
2018-Jul-09 10:59N 29°35' W 093°40'0 0.1
2018-Jul-09 10:29N 29°35' W 093°41'0 0.0
2018-Jul-09 09:59N 29°35' W 093°41'0 0.0
2018-Jul-09 09:26N 29°35' W 093°40'0 0.0
2018-Jul-09 08:59N 29°35' W 093°40'0 0.1
2018-Jul-09 08:29N 29°35' W 093°41'0 0.0
2018-Jul-09 07:59N 29°35' W 093°40'0 0.0
2018-Jul-09 07:29N 29°35' W 093°41'0 0.0
2018-Jul-09 06:59N 29°35' W 093°40'0 0.0
2018-Jul-09 06:29N 29°35' W 093°40'0 0.0
2018-Jul-09 05:59N 29°35' W 093°41'0 0.0
2018-Jul-09 05:29N 29°35' W 093°40'0 0.0
2018-Jul-09 04:59N 29°35' W 093°40'0 0.0
2018-Jul-09 04:29N 29°35' W 093°40'0 0.0
2018-Jul-09 03:59N 29°35' W 093°41'0 0.0
2018-Jul-09 03:29N 29°35' W 093°41'0 0.0
2018-Jul-09 02:59N 29°35' W 093°41'0 0.0
2018-Jul-09 02:29N 29°35' W 093°40'0 0.0
2018-Jul-09 01:59N 29°35' W 093°40'0 0.0
2018-Jul-09 01:29N 29°35' W 093°40'0 0.0
2018-Jul-09 00:59N 29°35' W 093°40'0 0.0
2018-Jul-09 00:29N 29°35' W 093°40'0 0.0
2018-Jul-08 23:59N 29°35' W 093°40'0 0.0
2018-Jul-08 23:29N 29°35' W 093°40'0 0.0
2018-Jul-08 22:56N 29°35' W 093°40'0 0.0
2018-Jul-08 22:29N 29°35' W 093°40'0 0.1
2018-Jul-08 21:59N 29°35' W 093°41'0 0.1
2018-Jul-08 21:29N 29°35' W 093°40'0 0.1
2018-Jul-08 20:59N 29°35' W 093°40'0 0.0
2018-Jul-08 20:29N 29°35' W 093°40'0 0.0
2018-Jul-08 19:59N 29°35' W 093°40'0 0.0
2018-Jul-08 19:26N 29°35' W 093°40'0 0.0
2018-Jul-08 18:59N 29°35' W 093°40'0 0.0
2018-Jul-08 18:29N 29°35' W 093°40'0 0.0
2018-Jul-08 17:59N 29°35' W 093°40'0 0.1
2018-Jul-08 17:29N 29°35' W 093°41'0 0.1
2018-Jul-08 16:59N 29°35' W 093°41'0 0.1
2018-Jul-08 16:29N 29°35' W 093°41'0 0.1
2018-Jul-08 15:59N 29°35' W 093°41'0 0.1
2018-Jul-08 15:26N 29°35' W 093°41'0 0.2
2018-Jul-08 14:59N 29°35' W 093°40'0 0.2
2018-Jul-08 14:29N 29°35' W 093°40'0 0.1
2018-Jul-08 13:59N 29°35' W 093°40'0 0.0
2018-Jul-08 13:29N 29°35' W 093°40'0 0.0
2018-Jul-08 12:59N 29°35' W 093°40'0 0.1
2018-Jul-08 12:29N 29°35' W 093°40'0 0.0
2018-Jul-08 11:59N 29°35' W 093°40'0 0.1
2018-Jul-08 11:29N 29°35' W 093°40'0 0.1
2018-Jul-08 10:59N 29°35' W 093°40'0 0.1
2018-Jul-08 10:29N 29°35' W 093°40'0 0.1
2018-Jul-08 09:59N 29°35' W 093°40'0 0.1
2018-Jul-08 09:29N 29°35' W 093°40'0 0.1
2018-Jul-08 08:59N 29°35' W 093°40'0 0.1
2018-Jul-08 08:29N 29°35' W 093°40'0 0.2
2018-Jul-08 07:59N 29°35' W 093°40'0 0.0
2018-Jul-08 07:29N 29°35' W 093°41'0 0.0
2018-Jul-08 06:59N 29°35' W 093°41'0 0.0
2018-Jul-08 06:29N 29°35' W 093°41'0 0.0
2018-Jul-08 05:59N 29°35' W 093°41'0 0.0
2018-Jul-08 05:29N 29°35' W 093°41'0 0.0
2018-Jul-08 04:59N 29°35' W 093°41'  

Dump ship's entire track history